< < Back
Terminal Aerodrome Forecast


Current Version              Previous Versions:   1  2  3  4  5  6  7  8  9  

Terminal Aerodrome Forecast

344
FTUS42 KGSP 191739
TAFGSP
TAF
KGSP 191739Z 1918/2018 09003KT P6SM BKN250
     FM200500 00000KT P6SM OVC100
     FM200900 03004KT P6SM -RA OVC050
     FM201500 06003KT P6SM BKN050=

Latest METAR

090
SAUS70 KWBC 201200 RRA
MTRGSP
METAR KGSP 201153Z 01005KT 9SM -RA OVC017 05/03 A3019 RMK AO2 RAB10
SLP224 P0001 60003 70003 T00500033 10083 20050 53014


USA.gov is the U.S. government's official web portal to all federal, state and local government web resources and services.